This is the latest recevied weather packets stored in our database for station/object DH5DY-6. If no packets are shown the sender has not sent any weather packets the latest 10 day(s).
| Time | Temp. | Humidity | Pressure | Rain* | Wind** | Luminosity | Snow |
|---|---|---|---|---|---|---|---|
| 1777787304 | 8.89° C | 88% | 1011.3 hPa | 0 mm | - | 42 W/m² | - |
| 1777786704 | 8.89° C | 87% | 1011.2 hPa | 0 mm | - | 42 W/m² | - |
| 1777786103 | 8.89° C | 87% | 1011.4 hPa | 0 mm | - | 39 W/m² | - |
| 1777784903 | 8.33° C | 90% | 1011.5 hPa | 0 mm | - | 33 W/m² | - |
| 1777783703 | 7.78° C | 90% | 1011.6 hPa | 0 mm | - | 23 W/m² | - |
| 1777783104 | 7.78° C | 89% | 1011.4 hPa | 0 mm | - | 19 W/m² | - |
| 1777782503 | 7.78° C | 89% | 1011.5 hPa | 0 mm | - | 12 W/m² | - |
| 1777781903 | 7.78° C | 89% | 1011.6 hPa | 0 mm | - | 5 W/m² | - |
| 1777780703 | 7.78° C | 90% | 1011.7 hPa | 0 mm | - | 0 W/m² | - |
| 1777775902 | 8.33° C | 90% | 1011.8 hPa | 0 mm | - | 0 W/m² | - |
| 1777775302 | 8.33° C | 90% | 1011.9 hPa | 0 mm | - | 0 W/m² | - |
| 1777774702 | 8.33° C | 89% | 1011.8 hPa | 0 mm | - | 0 W/m² | - |
| 1777773502 | 8.33° C | 89% | 1012 hPa | 0 mm | - | 0 W/m² | - |
| 1777772303 | 8.89° C | 88% | 1012.2 hPa | 0 mm | - | 0 W/m² | - |
| 1777771703 | 8.89° C | 88% | 1012.4 hPa | 0 mm | - | 0 W/m² | - |
| 1777771102 | 9.44° C | 88% | 1012.3 hPa | 0 mm | - | 0 W/m² | - |
| 1777769304 | 9.44° C | 86% | 1012.4 hPa | 0 mm | - | 0 W/m² | - |
| 1777768702 | 10° C | 85% | 1012.5 hPa | 0 mm | - | 0 W/m² | - |
| 1777768103 | 10° C | 85% | 1012.6 hPa | 0 mm | - | 0 W/m² | - |
| 1777766903 | 10.56° C | 84% | 1012.8 hPa | 0 mm | - | 0 W/m² | - |
| 1777764501 | 11.67° C | 80% | 1013.3 hPa | 0 mm | - | 0 W/m² | - |
| 1777763302 | 11.67° C | 78% | 1013.3 hPa | 0 mm | - | 0 W/m² | - |
| 1777762702 | 12.22° C | 77% | 1013.3 hPa | 0 mm | - | 0 W/m² | - |
| 1777762102 | 12.78° C | 76% | 1013.3 hPa | 0 mm | - | 0 W/m² | - |
| 1777759701 | 14.44° C | 70% | 1013.3 hPa | 0 mm | - | 0 W/m² | - |
* Rain latest hour (hover to see other rain measurements)
** Current wind speed in m/s (hover to see current wind gust speed)